Terminal Aerodrome Forecast
Issued by NWS Pittsburgh, PA

Current Version | Previous Version | Graphics & Text | Print | Product List | Glossary On
Versions: 1 2 3 4 5 6 7 8 9 10 11 12 13 14 15 16 17 18 19 20 21 22 23 24 25 26 27 28
546
FTUS41 KPBZ 171729
TAFPIT
TAF
KPIT 171729Z 1718/1824 18007KT P6SM BKN080
     FM172100 18005KT P6SM VCTS BKN035CB
      TEMPO 1721/1724 5SM -TSRA BKN035CB
     FM180400 22005KT P6SM -SHRA OVC035
     FM181000 22006KT 5SM BR VCSH BKN020
     FM181200 22008KT P6SM BKN015
     FM181700 23011G19KT P6SM BKN040=

USA.gov is the U.S. government's official web portal to all federal, state and local government web resources and services.